createdAt,value
2023-02-04T00:00:17.858Z,790.84
2023-02-04T00:01:17.903Z,790.88
2023-02-04T00:02:17.874Z,791.8
2023-02-04T00:03:17.851Z,791.69
2023-02-04T00:04:17.860Z,791.8
2023-02-04T00:05:17.877Z,792.28
2023-02-04T00:06:17.877Z,792.25
2023-02-04T00:07:17.863Z,792.26
2023-02-04T00:08:17.869Z,792.37
2023-02-04T00:09:17.871Z,792.4
2023-02-04T00:10:17.859Z,792.96
2023-02-04T00:11:17.913Z,792.82
2023-02-04T00:12:17.871Z,792.63
2023-02-04T00:13:17.866Z,793
2023-02-04T00:14:17.871Z,793.2
2023-02-04T00:15:17.885Z,793.27
2023-02-04T00:16:17.975Z,793.04
2023-02-04T00:17:17.898Z,793.17
2023-02-04T00:18:17.879Z,792.91
2023-02-04T00:19:17.877Z,793.1
2023-02-04T00:20:17.889Z,793.09
2023-02-04T00:21:17.918Z,793.24
2023-02-04T00:22:17.877Z,793.83
2023-02-04T00:23:17.876Z,793.95
2023-02-04T00:24:17.880Z,794.03
2023-02-04T00:25:17.884Z,793.85
2023-02-04T00:26:17.916Z,794.33
2023-02-04T00:27:17.914Z,794.34
2023-02-04T00:28:17.971Z,794.98
2023-02-04T00:29:17.888Z,795.23
2023-02-04T00:30:17.885Z,795.25
2023-02-04T00:31:17.984Z,794.63
2023-02-04T00:32:17.987Z,795.01
2023-02-04T00:33:17.922Z,795.24
2023-02-04T00:34:17.894Z,795.52
2023-02-04T00:35:17.892Z,795.6
2023-02-04T00:36:17.915Z,795.44
2023-02-04T00:37:17.896Z,795.6
2023-02-04T00:38:17.902Z,795.8
2023-02-04T00:39:17.905Z,796.24
2023-02-04T00:40:17.914Z,796.28
2023-02-04T00:41:17.932Z,796.9
2023-02-04T00:42:17.909Z,797.36
2023-02-04T00:43:17.925Z,797.58
2023-02-04T00:44:20.944Z,797.69
2023-02-04T00:45:17.933Z,798.78
2023-02-04T00:46:17.937Z,798.58
2023-02-04T00:47:17.950Z,798.47
2023-02-04T00:48:17.932Z,798.01
2023-02-04T00:49:17.952Z,798.1
2023-02-04T00:50:17.922Z,797.19
2023-02-04T00:51:17.937Z,798.42
2023-02-04T00:52:17.918Z,797.46
2023-02-04T00:53:17.923Z,797.23
2023-02-04T00:54:17.936Z,797.4
2023-02-04T00:55:20.805Z,796.71
2023-02-04T00:56:17.961Z,797.15
2023-02-04T00:57:17.932Z,796.4
2023-02-04T00:58:17.931Z,796.44
2023-02-04T00:59:17.933Z,796.47
2023-02-04T01:00:17.930Z,795.39
2023-02-04T01:01:18.005Z,795.29
2023-02-04T01:02:18.578Z,796.12
2023-02-04T01:03:17.948Z,795.37
2023-02-04T01:04:17.935Z,795.39
2023-02-04T01:05:17.987Z,795.2
2023-02-04T01:06:19.668Z,794.78
2023-02-04T01:07:17.986Z,794.65
2023-02-04T01:08:17.945Z,794.5
2023-02-04T01:09:17.940Z,794.57
2023-02-04T01:10:17.948Z,794.68
2023-02-04T01:11:17.954Z,794.58
2023-02-04T01:12:17.949Z,794.72
2023-02-04T01:13:17.955Z,794.29
2023-02-04T01:14:17.952Z,793.98
2023-02-04T01:15:17.952Z,793.62
2023-02-04T01:16:18.025Z,793.56
2023-02-04T01:17:17.960Z,793.17
2023-02-04T01:18:17.962Z,793.18
2023-02-04T01:19:17.953Z,792.34
2023-02-04T01:20:17.956Z,792.37
2023-02-04T01:21:17.987Z,792.21
2023-02-04T01:22:17.958Z,791.07
2023-02-04T01:23:17.982Z,791.07
2023-02-04T01:24:17.968Z,790.01
2023-02-04T01:25:18.985Z,790.42
2023-02-04T01:26:17.980Z,789.77
2023-02-04T01:27:17.972Z,789.27
2023-02-04T01:28:18.061Z,788.58
2023-02-04T01:29:17.966Z,788.3
2023-02-04T01:30:17.975Z,787.85
2023-02-04T01:31:18.290Z,787.84
2023-02-04T01:32:17.981Z,787.88
2023-02-04T01:33:17.980Z,787.4
2023-02-04T01:34:17.981Z,786.86
2023-02-04T01:35:18.014Z,786.81
2023-02-04T01:36:17.977Z,785.95
2023-02-04T01:37:18.014Z,785.95
2023-02-04T01:38:17.982Z,785.5
2023-02-04T01:39:17.981Z,785.47
2023-02-04T01:40:17.993Z,784.38
2023-02-04T01:41:17.991Z,784.48
2023-02-04T01:42:17.989Z,784.39
2023-02-04T01:43:17.989Z,784.42
2023-02-04T01:44:17.984Z,784.88
2023-02-04T01:45:17.996Z,783.94
2023-02-04T01:46:18.053Z,784.59
2023-02-04T01:47:17.994Z,784.13
2023-02-04T01:48:17.988Z,783.99
2023-02-04T01:49:21.032Z,784.06
2023-02-04T01:50:18.000Z,784.02
2023-02-04T01:51:18.004Z,783.92
2023-02-04T01:52:17.993Z,783.74
2023-02-04T01:53:18.021Z,783.26
2023-02-04T01:54:18.006Z,782.95
2023-02-04T01:55:18.005Z,782.37
2023-02-04T01:56:18.012Z,782.6
2023-02-04T01:57:18.001Z,781.62
2023-02-04T01:58:18.010Z,781.28
2023-02-04T01:59:18.005Z,780.57
2023-02-04T02:00:20.775Z,780.91
2023-02-04T02:01:18.042Z,780.52
2023-02-04T02:02:18.061Z,780.16
2023-02-04T02:03:18.010Z,780.28
2023-02-04T02:04:18.009Z,780.12
2023-02-04T02:05:18.009Z,779.8
2023-02-04T02:06:18.012Z,779.57
2023-02-04T02:07:18.013Z,779.6
2023-02-04T02:08:18.020Z,779.28
2023-02-04T02:09:18.049Z,779.36
2023-02-04T02:10:18.024Z,779.27
2023-02-04T02:11:18.019Z,778.94
2023-02-04T02:12:18.030Z,779.92
2023-02-04T02:13:18.025Z,779.48
2023-02-04T02:14:18.024Z,778.71
2023-02-04T02:15:18.020Z,778.64
2023-02-04T02:16:18.051Z,778.17
2023-02-04T02:17:18.052Z,777.52
2023-02-04T02:18:18.029Z,777.35
2023-02-04T02:19:18.048Z,777.1
2023-02-04T02:20:18.065Z,776.85
2023-02-04T02:21:18.035Z,776.49
2023-02-04T02:22:18.068Z,776.67
2023-02-04T02:23:18.050Z,775.75
2023-02-04T02:24:18.036Z,776.31
2023-02-04T02:25:18.066Z,775.68
2023-02-04T02:26:18.042Z,775.51
2023-02-04T02:27:18.064Z,775.21
2023-02-04T02:28:18.113Z,775.02
2023-02-04T02:29:18.040Z,774.7
2023-02-04T02:30:18.038Z,774.26
2023-02-04T02:31:18.149Z,773.61
2023-02-04T02:32:18.071Z,773.44
2023-02-04T02:33:18.046Z,772.12
2023-02-04T02:34:18.048Z,771.91
2023-02-04T02:35:18.051Z,771.57
2023-02-04T02:36:18.051Z,770.8
2023-02-04T02:37:18.080Z,770.24
2023-02-04T02:38:18.053Z,770.09
2023-02-04T02:39:18.051Z,769.79
2023-02-04T02:40:18.050Z,769.23
2023-02-04T02:41:18.080Z,768.61
2023-02-04T02:42:18.082Z,768.83
2023-02-04T02:43:18.059Z,768.18
2023-02-04T02:44:18.073Z,767.96
2023-02-04T02:45:18.058Z,767.49
2023-02-04T02:46:18.070Z,767.45
2023-02-04T02:47:18.101Z,767.3
2023-02-04T02:48:18.065Z,766.7
2023-02-04T02:49:18.070Z,766.62
2023-02-04T02:50:18.064Z,766.34
2023-02-04T02:51:18.062Z,765.86
2023-02-04T02:52:18.092Z,765.64
2023-02-04T02:53:18.071Z,765.29
2023-02-04T02:54:18.073Z,765.13
2023-02-04T02:55:18.083Z,765.33
2023-02-04T02:56:18.064Z,764.91
2023-02-04T02:57:18.122Z,764.52
2023-02-04T02:58:18.077Z,763.86
2023-02-04T02:59:18.073Z,763.65
2023-02-04T03:00:18.076Z,762.81
2023-02-04T03:01:18.108Z,762.3
2023-02-04T03:02:18.106Z,762.09
2023-02-04T03:03:18.071Z,760.73
2023-02-04T03:04:18.079Z,759.88
2023-02-04T03:05:18.081Z,758.72
2023-02-04T03:06:18.073Z,757.88
2023-02-04T03:07:18.096Z,757.24
2023-02-04T03:08:18.103Z,756
2023-02-04T03:09:18.083Z,755.25
2023-02-04T03:10:18.094Z,753.97
2023-02-04T03:11:21.148Z,753.61
2023-02-04T03:12:18.118Z,752.71
2023-02-04T03:13:18.116Z,752.61
2023-02-04T03:14:18.089Z,751.61
2023-02-04T03:15:18.093Z,751.32
2023-02-04T03:16:18.093Z,750.36
2023-02-04T03:17:18.117Z,750.04
2023-02-04T03:18:18.090Z,749.45
2023-02-04T03:19:18.100Z,749.17
2023-02-04T03:20:18.124Z,748.71
2023-02-04T03:21:18.109Z,748.79
2023-02-04T03:22:19.698Z,747.96
2023-02-04T03:23:18.114Z,747.43
2023-02-04T03:24:18.153Z,746.84
2023-02-04T03:25:18.105Z,746.67
2023-02-04T03:26:18.100Z,746.49
2023-02-04T03:27:18.099Z,746.35
2023-02-04T03:28:18.146Z,745.84
2023-02-04T03:29:18.129Z,745.91
2023-02-04T03:30:18.107Z,745.41
2023-02-04T03:31:18.228Z,745.25
2023-02-04T03:32:18.113Z,745.2
2023-02-04T03:33:20.897Z,745.08
2023-02-04T03:34:18.110Z,745.07
2023-02-04T03:35:18.124Z,745.45
2023-02-04T03:36:18.124Z,744.86
2023-02-04T03:37:18.122Z,745.2
2023-02-04T03:38:19.873Z,745.21
2023-02-04T03:39:18.117Z,744.82
2023-02-04T03:40:18.134Z,745.2
2023-02-04T03:41:18.129Z,745.35
2023-02-04T03:42:18.140Z,745.66
2023-02-04T03:43:18.122Z,745.31
2023-02-04T03:44:18.131Z,745.66
2023-02-04T03:45:18.161Z,746.36
2023-02-04T03:46:18.157Z,746.66
2023-02-04T03:47:18.138Z,746.18
2023-02-04T03:48:18.138Z,746.38
2023-02-04T03:49:18.136Z,746.38
2023-02-04T03:50:18.136Z,746.22
2023-02-04T03:51:18.137Z,746.24
2023-02-04T03:52:18.144Z,746.25
2023-02-04T03:53:18.146Z,745.49
2023-02-04T03:54:18.149Z,745.2
2023-02-04T03:55:18.142Z,744.85
2023-02-04T03:56:18.142Z,744.95
2023-02-04T03:57:18.141Z,744.1
2023-02-04T03:58:18.148Z,744.41
2023-02-04T03:59:18.140Z,743.79
2023-02-04T04:00:18.153Z,743.83
2023-02-04T04:01:18.210Z,743.22
2023-02-04T04:02:18.146Z,743.07
2023-02-04T04:03:18.147Z,742.93
2023-02-04T04:04:18.152Z,742.77
2023-02-04T04:05:18.161Z,742.94
2023-02-04T04:06:18.163Z,743.45
2023-02-04T04:07:18.153Z,743.02
2023-02-04T04:08:18.153Z,743.03
2023-02-04T04:09:18.160Z,742.83
2023-02-04T04:10:18.155Z,742.34
2023-02-04T04:11:18.158Z,742.58
2023-02-04T04:12:18.161Z,741.92
2023-02-04T04:13:18.159Z,741.28
2023-02-04T04:14:18.180Z,741.39
2023-02-04T04:15:18.162Z,739.74
2023-02-04T04:16:21.164Z,738.72
2023-02-04T04:17:18.167Z,737.96
2023-02-04T04:18:18.167Z,736.84
2023-02-04T04:19:18.168Z,736.04
2023-02-04T04:20:18.176Z,734.77
2023-02-04T04:21:18.175Z,733.64
2023-02-04T04:22:18.187Z,732.67
2023-02-04T04:23:18.179Z,731.51
2023-02-04T04:24:18.172Z,730.57
2023-02-04T04:25:18.171Z,729.63
2023-02-04T04:26:18.233Z,728.78
2023-02-04T04:27:21.074Z,727.7
2023-02-04T04:28:18.232Z,726.74
2023-02-04T04:29:18.178Z,725.77
2023-02-04T04:30:18.178Z,724.91
2023-02-04T04:31:18.346Z,724.72
2023-02-04T04:32:18.209Z,723.94
2023-02-04T04:33:18.184Z,722.94
2023-02-04T04:34:18.178Z,722.17
2023-02-04T04:35:18.216Z,720.48
2023-02-04T04:36:18.187Z,720.33
2023-02-04T04:37:18.188Z,719.57
2023-02-04T04:38:18.184Z,719.17
2023-02-04T04:39:18.186Z,718.53
2023-02-04T04:40:18.186Z,717.69
2023-02-04T04:41:18.186Z,717.58
2023-02-04T04:42:18.209Z,716.73
2023-02-04T04:43:18.194Z,716.65
2023-02-04T04:44:18.195Z,716.5
2023-02-04T04:45:18.188Z,716.71
2023-02-04T04:46:18.257Z,716.6
2023-02-04T04:47:18.216Z,717.04
2023-02-04T04:48:18.223Z,716.7
2023-02-04T04:49:18.203Z,717.36
2023-02-04T04:50:18.202Z,717.36
2023-02-04T04:51:18.205Z,718.39
2023-02-04T04:52:18.197Z,718.59
2023-02-04T04:53:18.204Z,718.36
2023-02-04T04:54:18.240Z,718.39
2023-02-04T04:55:18.207Z,719.5
2023-02-04T04:56:18.213Z,719.03
2023-02-04T04:57:18.210Z,719.96
2023-02-04T04:58:18.211Z,719.75
2023-02-04T04:59:18.206Z,720.3
2023-02-04T05:00:18.218Z,720.9
2023-02-04T05:01:18.261Z,720.55
2023-02-04T05:02:18.218Z,720.64
2023-02-04T05:03:18.214Z,721.14
2023-02-04T05:04:18.244Z,721.3
2023-02-04T05:05:18.224Z,722.01
2023-02-04T05:06:18.229Z,722.74
2023-02-04T05:07:18.227Z,723.04
2023-02-04T05:08:18.250Z,723.54
2023-02-04T05:09:18.224Z,723.6
2023-02-04T05:10:18.239Z,723.85
2023-02-04T05:11:18.227Z,723.47
2023-02-04T05:12:18.235Z,724.05
2023-02-04T05:13:18.252Z,723.41
2023-02-04T05:14:18.238Z,724.23
2023-02-04T05:15:18.233Z,723.94
2023-02-04T05:16:18.330Z,723.99
2023-02-04T05:17:18.244Z,724.18
2023-02-04T05:18:18.243Z,724.01
2023-02-04T05:19:18.238Z,724.09
2023-02-04T05:20:18.274Z,724.42
2023-02-04T05:21:18.249Z,724.45
2023-02-04T05:22:18.248Z,725.14
2023-02-04T05:23:18.264Z,724.93
2023-02-04T05:24:18.247Z,724.51
2023-02-04T05:25:18.247Z,724.59
2023-02-04T05:26:29.354Z,724.24
2023-02-04T05:27:18.273Z,723.56
2023-02-04T05:28:18.385Z,723.88
2023-02-04T05:29:18.262Z,724.25
2023-02-04T05:30:18.256Z,724.13
2023-02-04T05:31:18.419Z,724.09
2023-02-04T05:32:18.260Z,724
2023-02-04T05:33:18.259Z,725.1
2023-02-04T05:34:18.265Z,724.51
2023-02-04T05:35:18.266Z,724.79
2023-02-04T05:36:18.295Z,725.41
2023-02-04T05:37:18.282Z,724.62
2023-02-04T05:38:18.457Z,724.4
2023-02-04T05:39:18.274Z,724.71
2023-02-04T05:40:18.274Z,724.52
2023-02-04T05:41:18.272Z,724.41
2023-02-04T05:42:18.282Z,723.65
2023-02-04T05:43:18.268Z,722.56
2023-02-04T05:44:18.277Z,722.17
2023-02-04T05:45:18.271Z,721.41
2023-02-04T05:46:18.278Z,720.66
2023-02-04T05:47:18.274Z,719.75
2023-02-04T05:48:18.298Z,719.08
2023-02-04T05:49:21.332Z,718.08
2023-02-04T05:50:18.296Z,717.44
2023-02-04T05:51:18.282Z,715.98
2023-02-04T05:52:18.305Z,714.88
2023-02-04T05:53:18.280Z,714.12
2023-02-04T05:54:18.294Z,713.4
2023-02-04T05:55:18.291Z,711.97
2023-02-04T05:56:18.286Z,710.87
2023-02-04T05:57:18.287Z,710.18
2023-02-04T05:58:18.296Z,709.74
2023-02-04T05:59:18.292Z,709.01
2023-02-04T06:00:21.323Z,706.95
2023-02-04T06:01:18.308Z,705.82
2023-02-04T06:02:18.293Z,705.33
2023-02-04T06:03:18.335Z,705.03
2023-02-04T06:04:18.456Z,704.25
2023-02-04T06:05:18.305Z,703.58
2023-02-04T06:06:18.310Z,702.44
2023-02-04T06:07:18.314Z,701.9
2023-02-04T06:08:18.331Z,700.97
2023-02-04T06:09:18.313Z,699.57
2023-02-04T06:10:18.310Z,699.14
2023-02-04T06:11:18.316Z,697.94
2023-02-04T06:12:18.314Z,697.63
2023-02-04T06:13:18.309Z,697.19
2023-02-04T06:14:18.310Z,697.17
2023-02-04T06:15:18.316Z,696.79
2023-02-04T06:16:18.364Z,696.1
2023-02-04T06:17:18.324Z,695.42
2023-02-04T06:18:18.324Z,694.64
2023-02-04T06:19:18.317Z,694.67
2023-02-04T06:20:18.318Z,694.86
2023-02-04T06:21:18.322Z,693.51
2023-02-04T06:22:18.328Z,693.45
2023-02-04T06:23:18.337Z,693.32
2023-02-04T06:24:18.349Z,692.63
2023-02-04T06:25:18.334Z,692.23
2023-02-04T06:26:18.392Z,691.84
2023-02-04T06:27:18.330Z,692.27
2023-02-04T06:28:18.385Z,692.32
2023-02-04T06:29:18.349Z,692.22
2023-02-04T06:30:18.377Z,692.39
2023-02-04T06:31:19.527Z,692.29
2023-02-04T06:32:18.344Z,693.1
2023-02-04T06:33:18.367Z,691.96
2023-02-04T06:34:18.351Z,692.42
2023-02-04T06:35:18.341Z,691.97
2023-02-04T06:36:18.349Z,691.96
2023-02-04T06:37:18.361Z,691.26
2023-02-04T06:38:18.368Z,690.04
2023-02-04T06:39:18.354Z,688.16
2023-02-04T06:40:18.372Z,685.58
2023-02-04T06:41:18.357Z,681.37
2023-02-04T06:42:18.355Z,677.41
2023-02-04T06:43:21.766Z,673.07
2023-02-04T06:44:18.354Z,668.89
2023-02-04T06:45:18.358Z,665.47
2023-02-04T06:46:18.420Z,662.02
2023-02-04T06:47:18.365Z,658.79
2023-02-04T06:48:18.372Z,653.78
2023-02-04T06:49:18.371Z,650.76
2023-02-04T06:50:18.366Z,647.58
2023-02-04T06:51:18.367Z,644.02
2023-02-04T06:52:18.374Z,642.28
2023-02-04T06:53:18.372Z,639.28
2023-02-04T06:54:21.393Z,636.21
2023-02-04T06:55:18.382Z,635.15
2023-02-04T06:56:18.405Z,633.03
2023-02-04T06:57:18.379Z,631.74
2023-02-04T06:58:18.388Z,630.97
2023-02-04T06:59:18.378Z,629.85
2023-02-04T07:00:18.378Z,629.24
2023-02-04T07:01:18.426Z,629.42
2023-02-04T07:02:18.395Z,629.32
2023-02-04T07:03:19.442Z,629.46
2023-02-04T07:04:18.395Z,629.81
2023-02-04T07:05:21.461Z,630.53
2023-02-04T07:06:18.394Z,630.94
2023-02-04T07:07:18.393Z,631.53
2023-02-04T07:08:18.401Z,630.65
2023-02-04T07:09:18.403Z,630.71
2023-02-04T07:10:18.396Z,630.81
2023-02-04T07:11:18.395Z,629.72
2023-02-04T07:12:18.433Z,630.13
2023-02-04T07:13:18.409Z,629.85
2023-02-04T07:14:18.404Z,630.02
2023-02-04T07:15:18.409Z,629.93
2023-02-04T07:16:18.430Z,631.1
2023-02-04T07:17:18.414Z,631.18
2023-02-04T07:18:18.414Z,631.76
2023-02-04T07:19:20.217Z,631.46
2023-02-04T07:20:18.415Z,631.66
2023-02-04T07:21:18.425Z,631.95
2023-02-04T07:22:18.422Z,632.55
2023-02-04T07:23:18.429Z,632.21
2023-02-04T07:24:18.424Z,633.16
2023-02-04T07:25:18.428Z,632.74
2023-02-04T07:26:18.420Z,633.62
2023-02-04T07:27:18.423Z,634.16
2023-02-04T07:28:18.541Z,633.8
2023-02-04T07:29:25.031Z,634.38
2023-02-04T07:30:18.454Z,634.36
2023-02-04T07:31:18.574Z,634.19
2023-02-04T07:32:18.446Z,634.69
2023-02-04T07:33:18.438Z,635.62
2023-02-04T07:34:18.442Z,635.68
2023-02-04T07:35:18.451Z,635.84
2023-02-04T07:36:18.437Z,635.72
2023-02-04T07:37:18.438Z,636.13
2023-02-04T07:38:18.445Z,636.33
2023-02-04T07:39:18.448Z,636.51
2023-02-04T07:40:18.445Z,637.33
2023-02-04T07:41:18.456Z,637.4
2023-02-04T07:42:18.470Z,638.25
2023-02-04T07:43:18.465Z,639.18
2023-02-04T07:44:18.463Z,640.13
2023-02-04T07:45:18.453Z,641.07
2023-02-04T07:46:18.507Z,642.33
2023-02-04T07:47:18.447Z,642.99
2023-02-04T07:48:18.458Z,644.4
2023-02-04T07:49:18.447Z,644.75
2023-02-04T07:50:19.467Z,646.74
2023-02-04T07:51:18.448Z,646
2023-02-04T07:52:18.464Z,646.95
2023-02-04T07:53:18.463Z,647.65
2023-02-04T07:54:18.459Z,647.95
2023-02-04T07:55:18.461Z,649.43
2023-02-04T07:56:18.455Z,650.42
2023-02-04T07:57:20.358Z,651.89
2023-02-04T07:58:18.459Z,653.08
2023-02-04T07:59:18.505Z,654.55
2023-02-04T08:00:18.493Z,656.01
2023-02-04T08:01:18.493Z,657.52
2023-02-04T08:02:18.469Z,659.48
2023-02-04T08:03:18.472Z,660.83
2023-02-04T08:04:18.472Z,663.68
2023-02-04T08:05:21.265Z,665.47
2023-02-04T08:06:18.489Z,667.24
2023-02-04T08:07:18.476Z,670.66
2023-02-04T08:08:18.478Z,673.77
2023-02-04T08:09:18.503Z,675.81
2023-02-04T08:10:18.473Z,678.01
2023-02-04T08:11:18.473Z,680.3
2023-02-04T08:12:18.485Z,681.74
2023-02-04T08:13:18.477Z,682.83
2023-02-04T08:14:18.507Z,683.31
2023-02-04T08:15:18.480Z,685.48
2023-02-04T08:16:21.574Z,686.5
2023-02-04T08:17:18.492Z,688.1
2023-02-04T08:18:18.493Z,687.87
2023-02-04T08:19:18.506Z,688.73
2023-02-04T08:20:18.500Z,690.09
2023-02-04T08:21:19.641Z,690.55
2023-02-04T08:22:18.518Z,691.92
2023-02-04T08:23:18.511Z,693.16
2023-02-04T08:24:18.534Z,694.2
2023-02-04T08:25:18.508Z,695.09
2023-02-04T08:26:18.499Z,696.24
2023-02-04T08:27:21.592Z,697.16
2023-02-04T08:28:18.537Z,699.02
2023-02-04T08:29:18.531Z,699.92
2023-02-04T08:30:18.507Z,700.62
2023-02-04T08:31:18.649Z,701.83
2023-02-04T08:32:18.526Z,702.71
2023-02-04T08:33:18.505Z,703.8
2023-02-04T08:34:18.528Z,704.85
2023-02-04T08:35:18.508Z,706.4
2023-02-04T08:36:18.512Z,706.97
2023-02-04T08:37:18.506Z,707.8
2023-02-04T08:38:18.513Z,708.26
2023-02-04T08:39:18.552Z,709.11
2023-02-04T08:40:20.332Z,709.08
2023-02-04T08:41:18.512Z,709.83
2023-02-04T08:42:18.520Z,709.56
2023-02-04T08:43:18.522Z,709.6
2023-02-04T08:44:18.547Z,708.91
2023-02-04T08:45:18.533Z,709.45
2023-02-04T08:46:18.607Z,708.77
2023-02-04T08:47:18.538Z,709.27
2023-02-04T08:48:18.558Z,709.11
2023-02-04T08:49:18.651Z,709.34
2023-02-04T08:50:18.545Z,709.49
2023-02-04T08:51:18.545Z,710.05
2023-02-04T08:52:18.559Z,711.56
2023-02-04T08:53:18.552Z,712.44
2023-02-04T08:54:18.582Z,714.57
2023-02-04T08:55:18.565Z,716.33
2023-02-04T08:56:18.561Z,717.24
2023-02-04T08:57:18.566Z,719.59
2023-02-04T08:58:18.570Z,719.75
2023-02-04T08:59:18.592Z,721.52
2023-02-04T09:00:18.587Z,721.99
2023-02-04T09:01:18.587Z,722.5
2023-02-04T09:02:18.611Z,724.16
2023-02-04T09:03:18.576Z,725
2023-02-04T09:04:18.621Z,727.11
2023-02-04T09:05:18.580Z,729
2023-02-04T09:06:18.578Z,729.89
2023-02-04T09:07:18.588Z,731.06
2023-02-04T09:08:18.599Z,732.51
2023-02-04T09:09:19.365Z,734.16
2023-02-04T09:10:21.442Z,735.51
2023-02-04T09:11:18.589Z,736.34
2023-02-04T09:12:18.634Z,736.55
2023-02-04T09:13:18.605Z,737.07
2023-02-04T09:14:18.628Z,738.72
2023-02-04T09:15:18.601Z,739.7
2023-02-04T09:16:18.715Z,740.54
2023-02-04T09:17:18.601Z,741.66
2023-02-04T09:18:18.616Z,741.8
2023-02-04T09:19:18.628Z,742.39
2023-02-04T09:20:18.626Z,743.43
2023-02-04T09:21:21.690Z,744.02
2023-02-04T09:22:18.618Z,744.71
2023-02-04T09:23:18.618Z,745.69
2023-02-04T09:24:18.654Z,745.05
2023-02-04T09:25:18.620Z,744.63
2023-02-04T09:26:18.611Z,744.83
2023-02-04T09:27:18.624Z,746.19
2023-02-04T09:28:18.652Z,748.33
2023-02-04T09:29:18.642Z,749.46
2023-02-04T09:30:18.642Z,750.25
2023-02-04T09:31:18.724Z,750.9
2023-02-04T09:32:21.644Z,751.9
2023-02-04T09:33:18.629Z,752.54
2023-02-04T09:34:18.650Z,753.5
2023-02-04T09:35:18.627Z,754.33
2023-02-04T09:36:18.663Z,754.29
2023-02-04T09:37:18.627Z,755.87
2023-02-04T09:38:18.629Z,756.84
2023-02-04T09:39:18.659Z,758.26
2023-02-04T09:40:18.631Z,760.24
2023-02-04T09:41:18.632Z,762.11
2023-02-04T09:42:18.640Z,764.63
2023-02-04T09:43:18.641Z,766.45
2023-02-04T09:44:18.668Z,768.48
2023-02-04T09:45:18.639Z,771.35
2023-02-04T09:46:18.648Z,772.78
2023-02-04T09:47:18.646Z,774.98
2023-02-04T09:48:18.645Z,776.45
2023-02-04T09:49:18.677Z,778.2
2023-02-04T09:50:18.648Z,779.74
2023-02-04T09:51:18.656Z,780.83
2023-02-04T09:52:18.682Z,781.61
2023-02-04T09:53:18.651Z,781.76
2023-02-04T09:54:18.671Z,782.24
2023-02-04T09:55:18.655Z,781.8
2023-02-04T09:56:18.654Z,782.35
2023-02-04T09:57:18.648Z,781.25
2023-02-04T09:58:18.658Z,780.54
2023-02-04T09:59:18.664Z,781.17
2023-02-04T10:00:18.658Z,780.19
2023-02-04T10:01:18.746Z,780.01
2023-02-04T10:02:18.649Z,779.42
2023-02-04T10:03:18.662Z,778.67
2023-02-04T10:04:18.666Z,778.09
2023-02-04T10:05:18.641Z,778.9
2023-02-04T10:06:18.655Z,779.36
2023-02-04T10:07:18.644Z,780.3
2023-02-04T10:08:18.676Z,781.34
2023-02-04T10:09:18.664Z,781.52
2023-02-04T10:10:18.671Z,780.76
2023-02-04T10:11:18.656Z,780.14
2023-02-04T10:12:18.652Z,781.08
2023-02-04T10:13:18.656Z,783.97
2023-02-04T10:14:18.679Z,787.65
2023-02-04T10:15:19.687Z,788.72
2023-02-04T10:16:18.674Z,789.56
2023-02-04T10:17:18.653Z,790.15
2023-02-04T10:18:18.660Z,789.88
2023-02-04T10:19:18.675Z,788.43
2023-02-04T10:20:18.662Z,787.39
2023-02-04T10:21:18.658Z,786.37
2023-02-04T10:22:18.660Z,786.66
2023-02-04T10:23:18.657Z,786.13
2023-02-04T10:24:18.722Z,785.85
2023-02-04T10:25:18.668Z,786.05
2023-02-04T10:26:18.667Z,785.94
2023-02-04T10:27:18.675Z,785.89
2023-02-04T10:28:18.718Z,785.52
2023-02-04T10:29:18.694Z,785.83
2023-02-04T10:30:18.672Z,785.72
2023-02-04T10:31:18.796Z,785.67
2023-02-04T10:32:18.679Z,785.19
2023-02-04T10:33:18.674Z,785.21
2023-02-04T10:34:19.227Z,785.04
2023-02-04T10:35:18.678Z,785.34
2023-02-04T10:36:18.677Z,785.26
2023-02-04T10:37:18.682Z,784.47
2023-02-04T10:38:18.680Z,783.27
2023-02-04T10:39:18.732Z,783.47
2023-02-04T10:40:18.762Z,783.59
2023-02-04T10:41:18.694Z,784.56
2023-02-04T10:42:18.690Z,786.17
2023-02-04T10:43:21.500Z,788.02
2023-02-04T10:44:18.709Z,790.25
2023-02-04T10:45:18.699Z,791.73
2023-02-04T10:46:18.765Z,794.44
2023-02-04T10:47:18.700Z,798.86
2023-02-04T10:48:18.702Z,802.13
2023-02-04T10:49:18.729Z,805.27
2023-02-04T10:50:18.761Z,807.35
2023-02-04T10:51:18.705Z,809.12
2023-02-04T10:52:18.705Z,811.02
2023-02-04T10:53:18.717Z,812.31
2023-02-04T10:54:19.825Z,813.13
2023-02-04T10:55:18.712Z,813.29
2023-02-04T10:56:18.736Z,812.76
2023-02-04T10:57:20.364Z,812.19
2023-02-04T10:58:18.707Z,811.68
2023-02-04T10:59:18.722Z,811.34
2023-02-04T11:00:18.794Z,810.17
2023-02-04T11:01:18.778Z,809.67
2023-02-04T11:02:18.714Z,809.33
2023-02-04T11:03:18.723Z,809.98
2023-02-04T11:04:18.715Z,810.53
2023-02-04T11:05:18.724Z,811.48
2023-02-04T11:06:18.727Z,812.24
2023-02-04T11:07:18.725Z,813.88
2023-02-04T11:08:18.721Z,815.33
2023-02-04T11:09:18.729Z,815.73
2023-02-04T11:10:18.731Z,816.19
2023-02-04T11:11:18.724Z,814.85
2023-02-04T11:12:18.756Z,813.83
2023-02-04T11:13:18.735Z,812.81
2023-02-04T11:14:18.745Z,811.76
2023-02-04T11:15:18.738Z,811.45
2023-02-04T11:16:18.990Z,810.78
2023-02-04T11:17:18.732Z,810.45
2023-02-04T11:18:18.733Z,809.4
2023-02-04T11:19:18.744Z,808.81
2023-02-04T11:20:18.738Z,808.6
2023-02-04T11:21:19.422Z,808.58
2023-02-04T11:22:18.742Z,808.91
2023-02-04T11:23:18.761Z,808.26
2023-02-04T11:24:18.742Z,807.79
2023-02-04T11:25:18.747Z,806.14
2023-02-04T11:26:18.744Z,805.12
2023-02-04T11:27:18.752Z,804.84
2023-02-04T11:28:18.815Z,803.91
2023-02-04T11:29:18.758Z,803.44
2023-02-04T11:30:18.756Z,802.88
2023-02-04T11:31:18.869Z,801.99
2023-02-04T11:32:20.351Z,802.43
2023-02-04T11:33:18.760Z,802.45
2023-02-04T11:34:18.761Z,802.02
2023-02-04T11:35:18.764Z,802.13
2023-02-04T11:36:18.754Z,802.49
2023-02-04T11:37:21.784Z,803.04
2023-02-04T11:38:18.766Z,803.85
2023-02-04T11:39:18.785Z,804.24
2023-02-04T11:40:18.767Z,804.57
2023-02-04T11:41:18.762Z,805.81
2023-02-04T11:42:18.759Z,805.55
2023-02-04T11:43:22.070Z,805.52
2023-02-04T11:44:18.772Z,805.84
2023-02-04T11:45:18.768Z,806.46
2023-02-04T11:46:18.815Z,806.28
2023-02-04T11:47:18.775Z,806.27
2023-02-04T11:48:21.562Z,806.13
2023-02-04T11:49:18.775Z,805.08
2023-02-04T11:50:18.781Z,805.83
2023-02-04T11:51:18.793Z,806.01
2023-02-04T11:52:18.783Z,805.55
2023-02-04T11:53:18.777Z,807.03
2023-02-04T11:54:18.787Z,807.41
2023-02-04T11:55:18.775Z,807.83
2023-02-04T11:56:18.785Z,807.27
2023-02-04T11:57:18.787Z,808.04
2023-02-04T11:58:18.788Z,808.07
2023-02-04T11:59:18.837Z,808.02
2023-02-04T12:00:18.795Z,808.37
2023-02-04T12:01:18.811Z,808.08
2023-02-04T12:02:18.838Z,808.36
2023-02-04T12:03:18.803Z,807.99
2023-02-04T12:04:18.810Z,807.54
2023-02-04T12:05:18.805Z,806.74
2023-02-04T12:06:18.793Z,805.99
2023-02-04T12:07:18.803Z,805.88
2023-02-04T12:08:18.804Z,805.43
2023-02-04T12:09:18.797Z,804.22
2023-02-04T12:10:18.807Z,803.54
2023-02-04T12:11:18.800Z,801.88
2023-02-04T12:12:18.806Z,799.99
2023-02-04T12:13:18.814Z,798.41
2023-02-04T12:14:18.816Z,797.55
2023-02-04T12:15:18.837Z,797.88
2023-02-04T12:16:18.856Z,798.31
2023-02-04T12:17:18.879Z,799.09
2023-02-04T12:18:18.816Z,800.28
2023-02-04T12:19:18.822Z,801.5
2023-02-04T12:20:18.818Z,802.9
2023-02-04T12:21:18.836Z,803.91
2023-02-04T12:22:18.822Z,805.23
2023-02-04T12:23:18.814Z,805.6
2023-02-04T12:24:18.824Z,806.2
2023-02-04T12:25:18.824Z,807
2023-02-04T12:26:18.831Z,806.82
2023-02-04T12:27:18.819Z,807.3
2023-02-04T12:28:18.882Z,808.08
2023-02-04T12:29:18.828Z,808.24
2023-02-04T12:30:18.830Z,809.29
2023-02-04T12:31:19.049Z,810.62